createdAt,value
2023-04-09T00:02:27.639Z,8.56
2023-04-09T00:07:29.337Z,8.53
2023-04-09T00:12:31.002Z,8.48
2023-04-09T00:17:32.612Z,8.40
2023-04-09T00:22:34.333Z,8.34
2023-04-09T00:27:35.931Z,8.46
2023-04-09T00:32:38.004Z,8.58
2023-04-09T00:37:39.917Z,8.66
2023-04-09T00:42:41.783Z,8.62
2023-04-09T00:47:43.693Z,8.49
2023-04-09T00:52:45.638Z,8.39
2023-04-09T00:57:49.840Z,8.27
2023-04-09T01:02:51.481Z,8.14
2023-04-09T01:08:24.227Z,7.99
2023-04-09T01:13:50.535Z,7.80
2023-04-09T01:18:59.367Z,7.57
2023-04-09T01:24:42.684Z,7.42
2023-04-09T01:29:48.273Z,7.47
2023-04-09T01:34:51.976Z,7.40
2023-04-09T01:39:53.979Z,7.29
2023-04-09T01:44:57.743Z,7.47
2023-04-09T01:49:59.991Z,7.34
2023-04-09T01:55:01.670Z,7.40
2023-04-09T02:00:04.680Z,7.21
2023-04-09T02:05:20.162Z,7.15
2023-04-09T02:10:26.420Z,7.13
2023-04-09T02:15:31.294Z,7.08
2023-04-09T02:20:32.970Z,7.17
2023-04-09T02:25:34.844Z,7.08
2023-04-09T02:30:36.469Z,7.14
2023-04-09T02:35:38.483Z,7.14
2023-04-09T02:40:40.838Z,6.93
2023-04-09T02:45:42.552Z,6.79
2023-04-09T02:50:44.193Z,6.87
2023-04-09T02:55:45.755Z,7.01
2023-04-09T03:00:47.357Z,7.02
2023-04-09T03:05:49.021Z,7.02
2023-04-09T03:10:50.656Z,6.98
2023-04-09T03:15:53.600Z,6.91
2023-04-09T03:20:55.353Z,6.79
2023-04-09T03:26:04.821Z,6.65
2023-04-09T03:31:12.793Z,6.72
2023-04-09T03:36:16.135Z,6.84
2023-04-09T03:41:38.056Z,6.86
2023-04-09T03:46:46.657Z,6.80
2023-04-09T03:51:51.990Z,6.84
2023-04-09T03:56:54.581Z,6.91
2023-04-09T04:01:59.059Z,7.01
2023-04-09T04:07:03.783Z,7.00
2023-04-09T04:12:10.214Z,7.13
2023-04-09T04:17:35.372Z,7.13
2023-04-09T04:22:39.416Z,7.06
2023-04-09T04:27:43.973Z,7.06
2023-04-09T04:32:48.294Z,7.00
2023-04-09T04:37:50.776Z,6.90
2023-04-09T04:42:52.863Z,6.77
2023-04-09T04:47:54.620Z,6.70
2023-04-09T04:52:56.399Z,6.73
2023-04-09T04:58:02.312Z,6.88
2023-04-09T05:03:12.505Z,6.98
2023-04-09T05:08:22.495Z,7.06
2023-04-09T05:13:27.445Z,7.05
2023-04-09T05:18:29.361Z,7.08
2023-04-09T05:23:30.941Z,7.21
2023-04-09T05:28:32.883Z,7.27
2023-04-09T05:33:48.929Z,7.38
2023-04-09T05:38:56.443Z,7.48
2023-04-09T05:44:00.622Z,7.73
2023-04-09T05:49:03.654Z,7.82
2023-04-09T05:54:07.078Z,7.85
2023-04-09T05:59:12.100Z,7.99
2023-04-09T06:04:14.418Z,8.17
2023-04-09T06:09:16.290Z,8.19
2023-04-09T06:14:18.599Z,8.49
2023-04-09T06:19:20.352Z,8.56
2023-04-09T06:24:22.012Z,8.47
2023-04-09T06:29:24.411Z,8.78
2023-04-09T06:34:26.137Z,9.31
2023-04-09T06:39:27.864Z,9.55
2023-04-09T06:44:30.273Z,9.71
2023-04-09T06:49:32.098Z,9.82
2023-04-09T06:54:33.742Z,10.57
2023-04-09T06:59:35.296Z,11.60
2023-04-09T07:04:37.251Z,11.38
2023-04-09T07:09:38.886Z,11.32
2023-04-09T07:14:40.565Z,11.14
2023-04-09T07:19:42.217Z,11.10
2023-04-09T07:24:43.803Z,11.37
2023-04-09T07:29:45.728Z,11.87
2023-04-09T07:34:47.679Z,11.95
2023-04-09T07:39:50.339Z,11.63
2023-04-09T07:44:52.009Z,12.39
2023-04-09T07:49:53.587Z,13.04
2023-04-09T07:54:55.617Z,13.28
2023-04-09T07:59:57.608Z,13.69
2023-04-09T08:04:59.676Z,13.83
2023-04-09T08:10:01.521Z,14.79
2023-04-09T08:15:03.253Z,16.59
2023-04-09T08:20:05.577Z,15.79
2023-04-09T08:25:07.609Z,15.23
2023-04-09T08:30:09.792Z,15.99
2023-04-09T08:35:11.762Z,16.60
2023-04-09T08:40:13.544Z,16.80
2023-04-09T08:45:19.545Z,17.38
2023-04-09T08:50:21.115Z,16.52
2023-04-09T08:55:22.810Z,18.14
2023-04-09T09:00:24.532Z,18.76
2023-04-09T09:05:55.844Z,19.10
2023-04-09T09:10:57.470Z,19.04
2023-04-09T09:16:15.332Z,19.46
2023-04-09T09:21:17.870Z,19.76
2023-04-09T09:26:24.955Z,19.69
2023-04-09T09:31:26.988Z,20.40
2023-04-09T09:36:34.045Z,20.52
2023-04-09T09:41:36.704Z,19.04
2023-04-09T09:46:40.114Z,20.54
2023-04-09T09:51:42.944Z,17.83
2023-04-09T09:56:45.279Z,19.46
2023-04-09T10:01:48.292Z,18.23
2023-04-09T10:06:53.334Z,16.94
2023-04-09T10:11:57.923Z,17.41
2023-04-09T10:17:00.010Z,19.12
2023-04-09T10:22:12.912Z,17.96
2023-04-09T10:27:17.368Z,18.34
2023-04-09T10:32:23.912Z,19.30
2023-04-09T10:37:26.786Z,17.64
2023-04-09T10:42:44.265Z,19.88
2023-04-09T10:47:50.186Z,19.55
2023-04-09T10:52:55.836Z,20.71
2023-04-09T10:57:57.966Z,19.28
2023-04-09T11:03:25.657Z,16.45
2023-04-09T11:08:33.960Z,15.81
2023-04-09T11:13:35.621Z,16.65
2023-04-09T11:18:37.533Z,16.81
2023-04-09T11:23:39.150Z,17.30
2023-04-09T11:28:43.347Z,16.39
2023-04-09T11:33:47.971Z,18.13
2023-04-09T11:38:49.849Z,17.87
2023-04-09T11:43:52.102Z,16.26
2023-04-09T11:48:54.381Z,17.67
2023-04-09T11:53:56.064Z,17.16
2023-04-09T11:58:58.153Z,18.25
2023-04-09T12:04:00.776Z,16.43
2023-04-09T12:09:02.480Z,17.69
2023-04-09T12:14:07.599Z,18.21
2023-04-09T12:19:10.468Z,16.69
2023-04-09T12:24:12.169Z,16.64
2023-04-09T12:29:18.922Z,16.76
2023-04-09T12:34:20.647Z,16.15
2023-04-09T12:39:22.429Z,16.20
2023-04-09T12:44:24.105Z,16.40
2023-04-09T12:49:26.102Z,17.60
2023-04-09T12:54:27.797Z,16.79
2023-04-09T12:59:29.350Z,16.28
2023-04-09T13:04:31.150Z,16.80
2023-04-09T13:09:33.359Z,16.83
2023-04-09T13:14:35.145Z,16.67
2023-04-09T13:19:36.773Z,16.67
2023-04-09T13:24:38.711Z,16.58
2023-04-09T13:29:40.433Z,16.76
2023-04-09T13:34:42.104Z,17.06
2023-04-09T13:39:47.082Z,17.42
2023-04-09T13:44:48.772Z,17.53
2023-04-09T13:49:50.363Z,17.15
2023-04-09T13:54:51.898Z,16.69
2023-04-09T13:59:53.521Z,16.59
2023-04-09T14:04:56.056Z,16.48
2023-04-09T14:09:57.933Z,17.80
2023-04-09T14:14:59.892Z,16.96
2023-04-09T14:20:01.729Z,16.95
2023-04-09T14:25:03.658Z,16.56
2023-04-09T14:30:05.723Z,17.29
2023-04-09T14:35:07.597Z,16.77
2023-04-09T14:40:09.672Z,18.11
2023-04-09T14:45:11.697Z,17.48
2023-04-09T14:50:13.446Z,17.44
2023-04-09T14:55:15.713Z,17.43
2023-04-09T15:00:17.332Z,17.04
2023-04-09T15:05:18.960Z,16.91
2023-04-09T15:10:20.744Z,17.52
2023-04-09T15:15:22.492Z,17.38
2023-04-09T15:20:25.236Z,18.41
2023-04-09T15:25:26.757Z,17.61
2023-04-09T15:30:28.556Z,17.97
2023-04-09T15:35:30.130Z,19.48
2023-04-09T15:40:31.922Z,18.43
2023-04-09T15:45:33.645Z,19.42
2023-04-09T15:50:35.497Z,18.97
2023-04-09T15:55:37.255Z,17.88
2023-04-09T16:00:38.826Z,17.94
2023-04-09T16:05:40.605Z,18.02
2023-04-09T16:10:42.302Z,18.17
2023-04-09T16:15:43.871Z,18.55
2023-04-09T16:20:45.518Z,19.20
2023-04-09T16:25:47.202Z,18.83
2023-04-09T16:30:52.624Z,18.07
2023-04-09T16:35:54.462Z,18.08
2023-04-09T16:40:56.161Z,17.60
2023-04-09T16:45:58.886Z,17.61
2023-04-09T16:51:00.674Z,17.39
2023-04-09T16:56:03.882Z,17.44
2023-04-09T17:01:05.762Z,16.64
2023-04-09T17:06:07.625Z,16.20
2023-04-09T17:11:09.188Z,16.10
2023-04-09T17:16:10.810Z,16.07
2023-04-09T17:21:12.355Z,15.69
2023-04-09T17:26:13.949Z,15.00
2023-04-09T17:31:15.749Z,14.76
2023-04-09T17:36:18.512Z,14.53
2023-04-09T17:41:20.223Z,14.22
2023-04-09T17:46:21.888Z,13.94
2023-04-09T17:51:23.650Z,13.51
2023-04-09T17:56:25.162Z,13.31
2023-04-09T18:01:26.950Z,13.06
2023-04-09T18:06:28.624Z,12.86
2023-04-09T18:11:30.240Z,12.62
2023-04-09T18:16:31.964Z,12.42
2023-04-09T18:21:34.228Z,12.41
2023-04-09T18:26:35.845Z,12.36
2023-04-09T18:31:37.482Z,12.07
2023-04-09T18:36:39.049Z,12.17
2023-04-09T18:41:42.340Z,11.92
2023-04-09T18:46:44.013Z,11.79
2023-04-09T18:51:45.763Z,11.67
2023-04-09T18:56:47.368Z,11.47
2023-04-09T19:01:49.066Z,11.23
2023-04-09T19:06:50.931Z,11.06
2023-04-09T19:11:52.625Z,11.07
2023-04-09T19:16:54.374Z,11.02
2023-04-09T19:21:56.162Z,11.09
2023-04-09T19:26:57.674Z,10.89
2023-04-09T19:31:59.312Z,10.53
2023-04-09T19:37:00.973Z,10.29
2023-04-09T19:42:02.628Z,10.31
2023-04-09T19:47:04.166Z,10.27
2023-04-09T19:52:05.791Z,10.36
2023-04-09T19:57:07.313Z,10.44
2023-04-09T20:02:08.974Z,10.51
2023-04-09T20:07:10.604Z,10.44
2023-04-09T20:12:12.630Z,10.33
2023-04-09T20:17:14.185Z,9.97
2023-04-09T20:22:16.077Z,9.96
2023-04-09T20:27:17.748Z,9.86
2023-04-09T20:32:19.784Z,9.78
2023-04-09T20:37:21.631Z,9.54
2023-04-09T20:42:23.409Z,9.29
2023-04-09T20:47:25.028Z,8.99
2023-04-09T20:52:27.486Z,8.95
2023-04-09T20:57:29.002Z,9.19
2023-04-09T21:02:30.846Z,9.11
2023-04-09T21:07:32.554Z,9.10
2023-04-09T21:12:34.145Z,8.90
2023-04-09T21:17:35.717Z,8.54
2023-04-09T21:22:37.272Z,8.41
2023-04-09T21:27:38.822Z,8.29
2023-04-09T21:32:40.557Z,8.14
2023-04-09T21:37:42.230Z,8.02
2023-04-09T21:42:43.794Z,7.92
2023-04-09T21:47:45.454Z,7.89
2023-04-09T21:52:50.023Z,7.92
2023-04-09T21:57:51.692Z,7.83
2023-04-09T22:02:53.322Z,7.67
2023-04-09T22:07:55.807Z,7.58
2023-04-09T22:12:57.404Z,7.48
2023-04-09T22:17:59.060Z,7.45
2023-04-09T22:23:00.592Z,7.49
2023-04-09T22:28:02.386Z,7.59
2023-04-09T22:33:04.069Z,7.58
2023-04-09T22:38:05.598Z,7.54
2023-04-09T22:43:07.254Z,7.46
2023-04-09T22:48:08.806Z,7.49
2023-04-09T22:53:10.390Z,7.35
2023-04-09T22:58:12.012Z,7.20
2023-04-09T23:03:13.674Z,7.09
2023-04-09T23:08:15.241Z,7.01
2023-04-09T23:13:16.799Z,6.83
2023-04-09T23:18:18.305Z,6.68
2023-04-09T23:23:19.884Z,6.70
2023-04-09T23:28:21.389Z,7.04
2023-04-09T23:33:23.377Z,7.28
2023-04-09T23:38:24.930Z,7.23
2023-04-09T23:43:26.482Z,7.24
2023-04-09T23:48:28.016Z,7.33
2023-04-09T23:53:30.609Z,7.34
2023-04-09T23:58:32.158Z,7.26
